createdAt,value
2019-03-10T00:00:34.149Z,1.70
2019-03-10T00:03:02.597Z,1.72
2019-03-10T00:05:31.035Z,1.80
2019-03-10T00:07:59.633Z,1.87
2019-03-10T00:10:28.029Z,1.60
2019-03-10T00:12:58.033Z,1.60
2019-03-10T00:15:27.585Z,1.60
2019-03-10T00:17:58.653Z,1.74
2019-03-10T00:20:27.109Z,1.65
2019-03-10T00:22:55.902Z,1.77
2019-03-10T00:25:24.407Z,1.67
2019-03-10T00:27:52.802Z,1.52
2019-03-10T00:30:21.111Z,1.42
2019-03-10T00:32:49.469Z,1.40
2019-03-10T00:35:17.924Z,1.27
2019-03-10T00:37:47.966Z,1.55
2019-03-10T00:40:28.762Z,1.32
2019-03-10T00:43:28.539Z,1.40
2019-03-10T00:46:22.578Z,1.62
2019-03-10T00:49:10.273Z,1.30
2019-03-10T00:51:53.461Z,1.37
2019-03-10T00:54:23.025Z,1.66
2019-03-10T00:56:51.485Z,1.12
2019-03-10T00:59:20.017Z,1.50
2019-03-10T01:01:48.397Z,1.20
2019-03-10T01:04:16.764Z,1.52
2019-03-10T01:06:49.757Z,1.20
2019-03-10T01:09:18.122Z,1.40
2019-03-10T01:11:46.513Z,1.50
2019-03-10T01:14:14.961Z,1.12
2019-03-10T01:16:44.137Z,1.40
2019-03-10T01:19:12.629Z,1.45
2019-03-10T01:21:40.990Z,2.08
2019-03-10T01:24:09.436Z,1.40
2019-03-10T01:26:37.790Z,1.60
2019-03-10T01:29:07.804Z,1.83
2019-03-10T01:32:01.788Z,1.40
2019-03-10T01:34:52.724Z,1.10
2019-03-10T01:37:23.732Z,1.00
2019-03-10T01:39:54.846Z,1.20
2019-03-10T01:42:23.208Z,0.93
2019-03-10T01:44:51.682Z,1.07
2019-03-10T01:47:20.114Z,1.10
2019-03-10T01:49:50.133Z,1.60
2019-03-10T01:52:18.943Z,1.10
2019-03-10T01:54:47.381Z,1.17
2019-03-10T01:57:15.837Z,1.37
2019-03-10T01:59:44.445Z,1.12
2019-03-10T02:02:12.927Z,1.30
2019-03-10T02:04:41.291Z,0.97
2019-03-10T02:07:11.353Z,1.45
2019-03-10T02:09:41.350Z,1.55
2019-03-10T02:12:09.817Z,1.22
2019-03-10T02:14:39.015Z,1.04
2019-03-10T02:17:07.400Z,1.20
2019-03-10T02:19:35.862Z,1.27
2019-03-10T02:22:04.344Z,1.22
2019-03-10T02:24:32.822Z,1.10
2019-03-10T02:27:02.818Z,1.05
2019-03-10T02:29:33.362Z,1.12
2019-03-10T02:32:01.459Z,1.10
2019-03-10T02:34:29.835Z,1.07
2019-03-10T02:36:58.945Z,1.10
2019-03-10T02:39:31.755Z,1.15
2019-03-10T02:42:00.167Z,1.22
2019-03-10T02:44:28.577Z,1.07
2019-03-10T02:46:59.685Z,1.32
2019-03-10T02:49:28.082Z,1.20
2019-03-10T02:51:56.466Z,1.40
2019-03-10T02:54:24.885Z,1.43
2019-03-10T02:56:53.275Z,1.20
2019-03-10T02:59:21.734Z,1.30
2019-03-10T03:01:50.110Z,1.50
2019-03-10T03:04:19.907Z,1.30
2019-03-10T03:06:48.246Z,1.42
2019-03-10T03:09:16.610Z,1.10
2019-03-10T03:11:45.198Z,1.50
2019-03-10T03:14:13.547Z,1.47
2019-03-10T03:16:41.974Z,1.30
2019-03-10T03:19:10.383Z,1.27
2019-03-10T03:21:43.558Z,1.14
2019-03-10T03:24:09.145Z,1.30
2019-03-10T03:26:37.497Z,1.35
2019-03-10T03:29:05.992Z,1.40
2019-03-10T03:31:34.378Z,1.25
2019-03-10T03:34:02.753Z,1.30
2019-03-10T03:36:33.194Z,1.33
2019-03-10T03:39:16.950Z,1.03
2019-03-10T03:41:45.463Z,1.20
2019-03-10T03:44:13.771Z,1.27
2019-03-10T03:46:42.158Z,1.22
2019-03-10T03:49:10.520Z,1.43
2019-03-10T03:51:38.994Z,1.40
2019-03-10T03:54:07.963Z,2.00
2019-03-10T03:56:36.331Z,1.25
2019-03-10T03:59:04.729Z,1.80
2019-03-10T04:01:34.723Z,1.30
2019-03-10T04:04:03.189Z,1.42
2019-03-10T04:06:31.583Z,1.67
2019-03-10T04:09:00.035Z,1.87
2019-03-10T04:11:28.422Z,1.10
2019-03-10T04:13:56.838Z,1.57
2019-03-10T04:16:25.205Z,1.30
2019-03-10T04:18:53.575Z,1.87
2019-03-10T04:21:22.051Z,1.60
2019-03-10T04:23:50.415Z,1.70
2019-03-10T04:26:18.811Z,1.55
2019-03-10T04:28:47.184Z,1.50
2019-03-10T04:31:15.572Z,1.30
2019-03-10T04:33:44.177Z,1.47
2019-03-10T04:36:12.641Z,2.08
2019-03-10T04:38:41.028Z,1.95
2019-03-10T04:41:09.371Z,1.60
2019-03-10T04:43:37.766Z,1.72
2019-03-10T04:46:06.169Z,1.62
2019-03-10T04:48:34.549Z,1.60
2019-03-10T04:51:02.928Z,1.40
2019-03-10T04:53:31.361Z,1.55
2019-03-10T04:56:04.247Z,1.45
2019-03-10T04:58:34.276Z,1.40
2019-03-10T05:01:02.635Z,1.62
2019-03-10T05:03:31.097Z,1.35
2019-03-10T05:05:59.485Z,1.20
2019-03-10T05:08:27.950Z,1.00
2019-03-10T05:10:56.398Z,1.47
2019-03-10T05:13:25.010Z,1.30
2019-03-10T05:15:53.302Z,1.52
2019-03-10T05:18:21.768Z,1.35
2019-03-10T05:20:50.131Z,1.25
2019-03-10T05:23:33.259Z,1.60
2019-03-10T05:26:01.696Z,1.70
2019-03-10T05:28:32.068Z,1.42
2019-03-10T05:31:00.530Z,1.27
2019-03-10T05:33:28.908Z,1.70
2019-03-10T05:35:57.201Z,1.40
2019-03-10T05:38:25.665Z,1.82
2019-03-10T05:40:54.061Z,1.50
2019-03-10T05:43:22.433Z,1.55
2019-03-10T05:45:50.829Z,1.90
2019-03-10T05:48:19.193Z,1.77
2019-03-10T05:50:47.621Z,1.90
2019-03-10T05:53:17.693Z,1.80
2019-03-10T05:55:47.783Z,1.98
2019-03-10T05:58:16.183Z,2.30
2019-03-10T06:00:44.566Z,2.00
2019-03-10T06:03:13.070Z,1.98
2019-03-10T06:05:41.526Z,1.82
2019-03-10T06:08:09.937Z,2.13
2019-03-10T06:10:38.390Z,1.80
2019-03-10T06:13:06.774Z,2.10
2019-03-10T06:15:35.251Z,1.92
2019-03-10T06:18:13.209Z,1.98
2019-03-10T06:20:33.615Z,2.20
2019-03-10T06:23:02.065Z,2.00
2019-03-10T06:25:30.529Z,2.30
2019-03-10T06:27:58.927Z,1.90
2019-03-10T06:30:27.317Z,2.30
2019-03-10T06:32:55.681Z,2.10
2019-03-10T06:35:24.067Z,2.15
2019-03-10T06:37:52.426Z,2.77
2019-03-10T06:40:31.405Z,4.20
2019-03-10T06:42:50.813Z,2.35
2019-03-10T06:45:19.250Z,1.87
2019-03-10T06:47:48.188Z,2.08
2019-03-10T06:50:16.552Z,2.12
2019-03-10T06:52:44.990Z,2.20
2019-03-10T06:55:13.561Z,1.85
2019-03-10T06:57:41.920Z,2.40
2019-03-10T07:00:12.862Z,2.20
2019-03-10T07:02:41.296Z,2.10
2019-03-10T07:05:11.318Z,2.10
2019-03-10T07:07:39.763Z,2.40
2019-03-10T07:10:11.234Z,2.05
2019-03-10T07:12:39.636Z,2.67
2019-03-10T07:15:10.145Z,1.77
2019-03-10T07:17:38.549Z,2.25
2019-03-10T07:20:09.757Z,2.33
2019-03-10T07:22:38.192Z,2.17
2019-03-10T07:25:07.383Z,1.75
2019-03-10T07:27:37.427Z,2.33
2019-03-10T07:30:10.178Z,1.87
2019-03-10T07:32:42.939Z,2.37
2019-03-10T07:35:13.037Z,2.00
2019-03-10T07:37:43.046Z,1.52
2019-03-10T07:40:25.197Z,1.40
2019-03-10T07:42:55.290Z,1.60
2019-03-10T07:45:25.321Z,1.50
2019-03-10T07:47:55.382Z,2.20
2019-03-10T07:50:34.131Z,2.47
2019-03-10T07:53:19.022Z,1.93
2019-03-10T07:55:49.030Z,1.60
2019-03-10T07:58:21.827Z,1.85
2019-03-10T08:01:00.850Z,1.95
2019-03-10T08:03:30.887Z,1.80
2019-03-10T08:06:01.022Z,2.20
2019-03-10T08:08:31.086Z,2.02
2019-03-10T08:11:17.327Z,2.12
2019-03-10T08:14:03.786Z,1.70
2019-03-10T08:16:33.806Z,2.08
2019-03-10T08:19:12.520Z,1.82
2019-03-10T08:21:58.492Z,2.00
2019-03-10T08:24:28.489Z,1.83
2019-03-10T08:26:58.565Z,1.90
2019-03-10T08:29:40.459Z,1.75
2019-03-10T08:32:22.303Z,1.67
2019-03-10T08:35:08.635Z,2.02
2019-03-10T08:37:41.625Z,1.70
2019-03-10T08:40:18.452Z,2.05
2019-03-10T08:42:49.568Z,2.05
2019-03-10T08:45:22.612Z,1.77
2019-03-10T08:48:05.558Z,1.60
2019-03-10T08:50:38.405Z,1.65
2019-03-10T08:53:08.434Z,1.00
2019-03-10T08:55:38.542Z,1.67
2019-03-10T08:58:24.812Z,2.77
2019-03-10T09:01:01.419Z,2.10
2019-03-10T09:03:47.542Z,1.50
2019-03-10T09:06:20.294Z,1.82
2019-03-10T09:08:59.118Z,2.02
2019-03-10T09:11:45.433Z,1.60
2019-03-10T09:14:15.450Z,1.70
2019-03-10T09:16:48.497Z,1.87
2019-03-10T09:19:20.982Z,2.10
2019-03-10T09:21:50.905Z,1.50
2019-03-10T09:24:26.919Z,1.72
2019-03-10T09:26:56.979Z,2.08
2019-03-10T09:29:43.120Z,1.77
2019-03-10T09:32:19.025Z,1.77
2019-03-10T09:34:51.737Z,1.77
2019-03-10T09:37:21.999Z,1.55
2019-03-10T09:40:08.016Z,1.87
2019-03-10T09:42:38.057Z,2.33
2019-03-10T09:45:21.730Z,2.10
2019-03-10T09:47:57.621Z,2.33
2019-03-10T09:50:39.421Z,1.75
2019-03-10T09:53:09.450Z,1.90
2019-03-10T09:55:39.450Z,1.90
2019-03-10T09:58:09.406Z,2.00
2019-03-10T10:00:51.352Z,1.90
2019-03-10T10:03:21.374Z,2.20
2019-03-10T10:06:00.190Z,2.17
2019-03-10T10:08:42.186Z,1.98
2019-03-10T10:11:12.239Z,2.15
2019-03-10T10:13:42.285Z,1.50
2019-03-10T10:16:21.280Z,2.27
2019-03-10T10:18:51.225Z,1.77
2019-03-10T10:21:30.093Z,1.92
2019-03-10T10:24:06.057Z,1.27
2019-03-10T10:26:38.745Z,1.80
2019-03-10T10:29:08.734Z,1.37
2019-03-10T10:31:41.349Z,3.70
2019-03-10T10:34:17.141Z,1.72
2019-03-10T10:36:50.038Z,1.90
2019-03-10T10:39:28.998Z,1.62
2019-03-10T10:42:13.250Z,1.65
2019-03-10T10:44:46.206Z,1.50
2019-03-10T10:47:31.158Z,1.70
2019-03-10T10:50:03.954Z,1.30
2019-03-10T10:52:48.856Z,1.35
2019-03-10T10:55:19.155Z,1.10
2019-03-10T10:57:49.238Z,1.20
2019-03-10T11:00:22.031Z,1.20
2019-03-10T11:03:01.089Z,1.40
2019-03-10T11:05:31.077Z,1.45
2019-03-10T11:08:01.266Z,1.40
2019-03-10T11:10:32.662Z,1.20
2019-03-10T11:13:08.409Z,1.70
2019-03-10T11:15:55.689Z,1.52
2019-03-10T11:18:34.709Z,1.40
2019-03-10T11:21:05.726Z,1.07
2019-03-10T11:23:38.574Z,1.07
2019-03-10T11:26:15.117Z,1.20
2019-03-10T11:28:47.845Z,1.20
2019-03-10T11:31:29.883Z,1.20
2019-03-10T11:34:00.043Z,1.10
2019-03-10T11:36:35.822Z,1.02
2019-03-10T11:39:10.344Z,1.30
2019-03-10T11:41:51.652Z,1.70
2019-03-10T11:44:21.721Z,1.10
2019-03-10T11:47:00.388Z,1.37
2019-03-10T11:49:30.450Z,1.20
2019-03-10T11:52:00.580Z,1.47
2019-03-10T11:54:39.363Z,4.95
2019-03-10T11:57:18.545Z,1.45
2019-03-10T11:59:59.322Z,1.50
2019-03-10T12:02:31.893Z,1.22
2019-03-10T12:05:19.540Z,0.90
2019-03-10T12:08:06.716Z,0.90
2019-03-10T12:10:36.487Z,1.30
2019-03-10T12:13:05.773Z,1.10
2019-03-10T12:15:34.135Z,1.12
2019-03-10T12:18:02.521Z,1.16
2019-03-10T12:20:30.916Z,0.90
2019-03-10T12:23:00.177Z,0.88
2019-03-10T12:25:28.601Z,0.70
2019-03-10T12:27:56.989Z,0.78
2019-03-10T12:30:25.429Z,1.00
2019-03-10T12:32:53.838Z,0.75
2019-03-10T12:35:22.206Z,0.68
2019-03-10T12:37:50.595Z,0.98
2019-03-10T12:40:19.044Z,0.88
2019-03-10T12:42:49.332Z,0.82
2019-03-10T12:45:18.994Z,1.08
2019-03-10T12:47:47.378Z,0.80
2019-03-10T12:50:15.763Z,1.17
2019-03-10T12:52:44.191Z,0.82
2019-03-10T12:55:12.606Z,1.00
2019-03-10T12:57:41.030Z,1.07
2019-03-10T13:00:13.812Z,0.90
2019-03-10T13:02:42.183Z,0.75
2019-03-10T13:05:10.779Z,1.27
2019-03-10T13:07:40.134Z,0.95
2019-03-10T13:10:08.521Z,0.80
2019-03-10T13:12:36.909Z,1.00
2019-03-10T13:15:08.979Z,0.90
2019-03-10T13:20:08.298Z,0.80
2019-03-10T13:22:36.667Z,0.80
2019-03-10T13:25:07.997Z,0.60
2019-03-10T13:27:36.325Z,1.10
2019-03-10T13:30:07.726Z,0.70
2019-03-10T13:32:36.224Z,0.93
2019-03-10T13:35:04.570Z,0.70
2019-03-10T13:37:32.954Z,0.80
2019-03-10T13:40:01.339Z,0.78
2019-03-10T13:42:29.790Z,1.00
2019-03-10T13:44:58.226Z,1.10
2019-03-10T13:47:26.683Z,0.80
2019-03-10T13:49:55.188Z,0.82
2019-03-10T13:52:23.653Z,0.80
2019-03-10T13:54:52.070Z,0.90
2019-03-10T13:57:20.428Z,0.80
2019-03-10T13:59:48.975Z,0.90
2019-03-10T14:02:19.034Z,1.10
2019-03-10T14:04:47.419Z,0.85
2019-03-10T14:07:15.825Z,1.00
2019-03-10T14:09:44.211Z,0.90
2019-03-10T14:12:12.573Z,0.80
2019-03-10T14:14:41.061Z,0.90
2019-03-10T14:17:09.519Z,0.80
2019-03-10T14:19:37.877Z,1.35
2019-03-10T14:22:06.330Z,1.60
2019-03-10T14:24:34.738Z,1.20
2019-03-10T14:27:03.192Z,1.10
2019-03-10T14:29:31.558Z,1.22
2019-03-10T14:31:59.954Z,1.20
2019-03-10T14:34:28.392Z,1.22
2019-03-10T14:36:56.854Z,1.12
2019-03-10T14:39:25.290Z,1.00
2019-03-10T14:41:53.630Z,1.10
2019-03-10T14:44:21.951Z,1.35
2019-03-10T14:46:50.338Z,1.20
2019-03-10T14:49:23.293Z,1.10
2019-03-10T14:51:48.832Z,1.15
2019-03-10T14:54:19.309Z,1.32
2019-03-10T14:56:47.750Z,0.98
2019-03-10T14:59:16.167Z,0.93
2019-03-10T15:01:44.552Z,1.02
2019-03-10T15:04:12.911Z,0.90
2019-03-10T15:06:41.371Z,0.97
2019-03-10T15:09:12.585Z,1.00
2019-03-10T15:11:41.041Z,0.80
2019-03-10T15:14:09.483Z,0.93
2019-03-10T15:16:38.175Z,0.75
2019-03-10T15:19:06.538Z,0.90
2019-03-10T15:21:34.938Z,0.97
2019-03-10T15:24:03.364Z,1.00
2019-03-10T15:26:31.734Z,0.90
2019-03-10T15:29:00.156Z,1.10
2019-03-10T15:31:28.670Z,1.00
2019-03-10T15:33:57.018Z,0.80
2019-03-10T15:36:25.490Z,1.10
2019-03-10T15:39:13.358Z,1.10
2019-03-10T15:41:41.864Z,0.90
2019-03-10T15:44:10.225Z,0.90
2019-03-10T15:46:38.653Z,0.98
2019-03-10T15:49:07.943Z,1.00
2019-03-10T15:51:36.236Z,1.02
2019-03-10T15:54:05.906Z,1.00
2019-03-10T15:56:34.405Z,0.98
2019-03-10T15:59:02.854Z,1.07
2019-03-10T16:01:31.281Z,2.50
2019-03-10T16:04:04.166Z,0.80
2019-03-10T16:06:31.973Z,1.63
2019-03-10T16:09:00.406Z,1.40
2019-03-10T16:11:28.982Z,1.20
2019-03-10T16:13:57.365Z,1.32
2019-03-10T16:16:25.758Z,1.00
2019-03-10T16:18:54.118Z,1.00
2019-03-10T16:21:22.499Z,0.98
2019-03-10T16:23:50.894Z,1.10
2019-03-10T16:26:19.262Z,1.25
2019-03-10T16:28:47.726Z,1.10
2019-03-10T16:31:16.032Z,1.05
2019-03-10T16:33:44.455Z,1.20
2019-03-10T16:36:12.849Z,1.00
2019-03-10T16:38:41.234Z,1.10
2019-03-10T16:41:11.790Z,1.10
2019-03-10T16:43:40.153Z,0.90
2019-03-10T16:46:08.581Z,1.23
2019-03-10T16:48:36.965Z,1.15
2019-03-10T16:51:05.369Z,0.95
2019-03-10T16:53:33.739Z,1.40
2019-03-10T16:56:03.186Z,1.72
2019-03-10T16:58:31.753Z,1.40
2019-03-10T17:01:00.217Z,1.50
2019-03-10T17:03:31.677Z,1.47
2019-03-10T17:05:59.979Z,2.25
2019-03-10T17:08:28.395Z,3.47
2019-03-10T17:10:56.777Z,2.20
2019-03-10T17:13:29.273Z,1.80
2019-03-10T17:15:57.710Z,1.90
2019-03-10T17:18:27.416Z,1.90
2019-03-10T17:20:55.839Z,1.80
2019-03-10T17:23:24.328Z,1.40
2019-03-10T17:25:52.707Z,1.52
2019-03-10T17:28:21.146Z,1.72
2019-03-10T17:30:49.626Z,1.43
2019-03-10T17:33:20.921Z,1.70
2019-03-10T17:35:49.306Z,1.52
2019-03-10T17:38:17.684Z,1.80
2019-03-10T17:40:47.043Z,1.70
2019-03-10T17:43:15.473Z,1.70
2019-03-10T17:45:44.005Z,1.75
2019-03-10T17:48:13.260Z,2.80
2019-03-10T17:50:41.793Z,4.33
2019-03-10T17:53:13.156Z,3.45
2019-03-10T17:55:41.517Z,2.20
2019-03-10T17:58:09.893Z,3.17
2019-03-10T18:00:39.682Z,2.85
2019-03-10T18:03:09.969Z,2.60
2019-03-10T18:05:38.422Z,1.95
2019-03-10T18:08:10.350Z,2.05
2019-03-10T18:10:38.768Z,1.70
2019-03-10T18:13:07.242Z,1.80
2019-03-10T18:15:37.309Z,2.17
2019-03-10T18:18:05.682Z,1.60
2019-03-10T18:20:34.065Z,1.70
2019-03-10T18:23:02.461Z,1.67
2019-03-10T18:25:30.826Z,1.73
2019-03-10T18:27:59.188Z,1.42
2019-03-10T18:30:30.520Z,1.42
2019-03-10T18:32:58.889Z,1.57
2019-03-10T18:35:27.356Z,1.95
2019-03-10T18:37:55.677Z,1.95
2019-03-10T18:40:27.529Z,1.40
2019-03-10T18:42:55.904Z,2.08
2019-03-10T18:45:24.348Z,1.55
2019-03-10T18:47:52.736Z,1.57
2019-03-10T18:50:22.768Z,1.77
2019-03-10T18:52:51.336Z,1.70
2019-03-10T18:55:20.482Z,1.55
2019-03-10T18:57:48.917Z,1.98
2019-03-10T19:00:29.982Z,3.53
2019-03-10T19:03:00.696Z,2.90
2019-03-10T19:05:29.060Z,1.90
2019-03-10T19:07:57.427Z,2.05
2019-03-10T19:10:25.814Z,1.95
2019-03-10T19:12:57.103Z,1.67
2019-03-10T19:15:28.931Z,1.60
2019-03-10T19:17:57.415Z,1.80
2019-03-10T19:20:27.759Z,1.70
2019-03-10T19:22:56.361Z,2.08
2019-03-10T19:25:24.715Z,2.42
2019-03-10T19:27:53.160Z,1.77
2019-03-10T19:30:22.489Z,1.80
2019-03-10T19:32:50.833Z,1.40
2019-03-10T19:35:19.201Z,1.83
2019-03-10T19:37:47.625Z,2.47
2019-03-10T19:40:17.203Z,1.92
2019-03-10T19:42:45.589Z,2.17
2019-03-10T19:45:20.373Z,2.10
2019-03-10T19:47:48.764Z,2.05
2019-03-10T19:50:27.271Z,1.40
2019-03-10T19:52:55.605Z,1.40
2019-03-10T19:55:23.962Z,1.67
2019-03-10T19:57:53.102Z,2.02
2019-03-10T20:00:22.079Z,2.17
2019-03-10T20:02:50.536Z,1.92
2019-03-10T20:05:18.896Z,1.77
2019-03-10T20:07:47.364Z,1.70
2019-03-10T20:10:20.440Z,1.90
2019-03-10T20:12:48.891Z,1.52
2019-03-10T20:15:21.125Z,2.03
2019-03-10T20:17:49.475Z,1.90
2019-03-10T20:20:23.073Z,1.87
2019-03-10T20:22:51.442Z,1.90
2019-03-10T20:25:19.865Z,4.47
2019-03-10T20:27:48.237Z,2.20
2019-03-10T20:30:25.784Z,1.90
2019-03-10T20:32:54.263Z,1.40
2019-03-10T20:35:22.679Z,1.80
2019-03-10T20:37:51.046Z,1.77
2019-03-10T20:40:24.162Z,2.50
2019-03-10T20:42:52.522Z,1.80
2019-03-10T20:45:20.899Z,1.87
2019-03-10T20:47:49.362Z,1.42
2019-03-10T20:50:18.959Z,1.98
2019-03-10T20:52:47.347Z,1.80
2019-03-10T20:55:15.812Z,1.25
2019-03-10T20:57:45.227Z,1.50
2019-03-10T21:00:21.575Z,1.62
2019-03-10T21:02:50.330Z,1.52
2019-03-10T21:05:18.776Z,1.85
2019-03-10T21:07:47.271Z,1.70
2019-03-10T21:10:18.157Z,1.83
2019-03-10T21:12:46.538Z,1.50
2019-03-10T21:15:17.397Z,2.20
2019-03-10T21:17:45.800Z,1.57
2019-03-10T21:20:18.591Z,1.90
2019-03-10T21:22:47.017Z,2.02
2019-03-10T21:25:17.341Z,2.15
2019-03-10T21:27:45.929Z,1.85
2019-03-10T21:30:22.099Z,1.62
2019-03-10T21:32:53.259Z,1.80
2019-03-10T21:35:24.330Z,1.40
2019-03-10T21:37:52.802Z,1.80
2019-03-10T21:40:27.374Z,1.20
2019-03-10T21:42:55.762Z,1.40
2019-03-10T21:45:24.092Z,1.25
2019-03-10T21:47:52.547Z,1.57
2019-03-10T21:50:21.029Z,1.95
2019-03-10T21:52:52.175Z,1.60
2019-03-10T21:55:20.643Z,1.53
2019-03-10T21:57:50.731Z,1.33
2019-03-10T22:00:22.109Z,2.00
2019-03-10T22:02:50.537Z,2.07
2019-03-10T22:05:18.936Z,1.55
2019-03-10T22:07:48.167Z,1.67
2019-03-10T22:10:27.089Z,1.90
2019-03-10T22:12:48.932Z,1.80
2019-03-10T22:15:18.449Z,1.62
2019-03-10T22:17:47.990Z,1.32
2019-03-10T22:20:18.472Z,1.75
2019-03-10T22:22:50.307Z,1.70
2019-03-10T22:25:16.945Z,1.60
2019-03-10T22:27:46.367Z,1.45
2019-03-10T22:30:19.983Z,1.80
2019-03-10T22:32:53.822Z,1.40
2019-03-10T22:35:22.385Z,2.40
2019-03-10T22:37:50.838Z,1.60
2019-03-10T22:40:22.324Z,2.27
2019-03-10T22:42:54.616Z,2.13
2019-03-10T22:45:23.558Z,1.55
2019-03-10T22:47:51.876Z,1.60
2019-03-10T22:50:20.345Z,2.58
2019-03-10T22:52:48.640Z,1.40
2019-03-10T22:55:17.128Z,1.90
2019-03-10T22:57:45.556Z,1.50
2019-03-10T23:00:19.243Z,1.77
2019-03-10T23:02:49.866Z,1.50
2019-03-10T23:05:18.293Z,1.40
2019-03-10T23:07:46.668Z,1.82
2019-03-10T23:10:15.601Z,1.47
2019-03-10T23:12:44.114Z,1.47
2019-03-10T23:15:13.444Z,1.67
2019-03-10T23:17:41.931Z,1.20
2019-03-10T23:20:15.198Z,1.57
2019-03-10T23:22:43.628Z,1.65
2019-03-10T23:25:12.268Z,1.40
2019-03-10T23:27:42.329Z,1.60
2019-03-10T23:30:20.862Z,1.65
2019-03-10T23:32:49.318Z,1.80
2019-03-10T23:35:17.696Z,1.57
2019-03-10T23:37:46.174Z,1.62
2019-03-10T23:40:17.186Z,1.90
2019-03-10T23:42:48.350Z,1.90
2019-03-10T23:45:20.380Z,1.92
2019-03-10T23:47:48.743Z,2.05
2019-03-10T23:50:17.927Z,1.90
2019-03-10T23:52:46.407Z,1.60
2019-03-10T23:55:14.885Z,1.62
2019-03-10T23:57:43.280Z,1.77
